sensor_id;sensor_type;location;lat;lon;timestamp;pressure;altitude;pressure_sealevel;temperature
28803;BMP280;15949;55.656;37.422;2022-07-19T00:00:51;99238.19;;;11.59
28803;BMP280;15949;55.656;37.422;2022-07-19T00:05:57;99241.44;;;11.53
28803;BMP280;15949;55.656;37.422;2022-07-19T00:11:02;99240.06;;;11.49
28803;BMP280;15949;55.656;37.422;2022-07-19T00:16:08;99245.97;;;11.44
28803;BMP280;15949;55.656;37.422;2022-07-19T00:21:14;99241.19;;;11.39
28803;BMP280;15949;55.656;37.422;2022-07-19T00:26:19;99232.94;;;11.24
28803;BMP280;15949;55.656;37.422;2022-07-19T00:31:25;99233.28;;;11.26
28803;BMP280;15949;55.656;37.422;2022-07-19T00:36:30;99230.47;;;11.29
28803;BMP280;15949;55.656;37.422;2022-07-19T00:41:43;99229.53;;;11.23
28803;BMP280;15949;55.656;37.422;2022-07-19T00:46:49;99241.56;;;11.28
28803;BMP280;15949;55.656;37.422;2022-07-19T00:51:55;99235.06;;;11.29
28803;BMP280;15949;55.656;37.422;2022-07-19T00:57:03;99233.88;;;11.30
28803;BMP280;15949;55.656;37.422;2022-07-19T01:02:11;99240.72;;;11.31
28803;BMP280;15949;55.656;37.422;2022-07-19T01:07:17;99237.47;;;11.36
28803;BMP280;15949;55.656;37.422;2022-07-19T01:12:23;99243.69;;;11.33
28803;BMP280;15949;55.656;37.422;2022-07-19T01:17:28;99240.72;;;11.31
28803;BMP280;15949;55.656;37.422;2022-07-19T01:22:34;99236.88;;;11.32
28803;BMP280;15949;55.656;37.422;2022-07-19T01:27:42;99244.88;;;11.32
28803;BMP280;15949;55.656;37.422;2022-07-19T01:32:49;99240.47;;;11.16
28803;BMP280;15949;55.656;37.422;2022-07-19T01:37:55;99243.06;;;11.29
28803;BMP280;15949;55.656;37.422;2022-07-19T01:43:00;99244.28;;;11.37
28803;BMP280;15949;55.656;37.422;2022-07-19T01:48:06;99246.53;;;11.39
28803;BMP280;15949;55.656;37.422;2022-07-19T01:53:12;99250.25;;;11.41
28803;BMP280;15949;55.656;37.422;2022-07-19T01:58:17;99260.53;;;11.52
28803;BMP280;15949;55.656;37.422;2022-07-19T02:03:23;99260.41;;;11.55
28803;BMP280;15949;55.656;37.422;2022-07-19T02:08:28;99259.53;;;11.59
28803;BMP280;15949;55.656;37.422;2022-07-19T02:13:34;99252.88;;;11.63
28803;BMP280;15949;55.656;37.422;2022-07-19T02:18:40;99268.00;;;11.57
28803;BMP280;15949;55.656;37.422;2022-07-19T02:23:45;99269.09;;;11.69
28803;BMP280;15949;55.656;37.422;2022-07-19T02:28:51;99273.72;;;11.77
28803;BMP280;15949;55.656;37.422;2022-07-19T02:33:57;99278.38;;;11.95
28803;BMP280;15949;55.656;37.422;2022-07-19T02:39:02;99274.22;;;11.94
28803;BMP280;15949;55.656;37.422;2022-07-19T02:44:08;99275.97;;;11.88
28803;BMP280;15949;55.656;37.422;2022-07-19T02:49:14;99271.84;;;11.87
28803;BMP280;15949;55.656;37.422;2022-07-19T02:54:19;99272.16;;;11.67
28803;BMP280;15949;55.656;37.422;2022-07-19T02:59:25;99272.00;;;11.62
28803;BMP280;15949;55.656;37.422;2022-07-19T03:04:31;99278.28;;;11.68
28803;BMP280;15949;55.656;37.422;2022-07-19T03:09:36;99278.47;;;11.83
28803;BMP280;15949;55.656;37.422;2022-07-19T03:14:42;99272.75;;;11.93
28803;BMP280;15949;55.656;37.422;2022-07-19T03:19:47;99273.13;;;12.23
28803;BMP280;15949;55.656;37.422;2022-07-19T03:24:53;99274.06;;;12.47
28803;BMP280;15949;55.656;37.422;2022-07-19T03:30:02;99280.75;;;12.43
28803;BMP280;15949;55.656;37.422;2022-07-19T03:35:08;99285.78;;;12.41
28803;BMP280;15949;55.656;37.422;2022-07-19T03:40:14;99279.09;;;12.36
28803;BMP280;15949;55.656;37.422;2022-07-19T03:45:19;99287.13;;;12.36
28803;BMP280;15949;55.656;37.422;2022-07-19T03:50:25;99293.69;;;12.44
28803;BMP280;15949;55.656;37.422;2022-07-19T03:55:31;99288.03;;;12.42
28803;BMP280;15949;55.656;37.422;2022-07-19T04:00:36;99300.78;;;12.38
28803;BMP280;15949;55.656;37.422;2022-07-19T04:05:42;99283.28;;;12.37
28803;BMP280;15949;55.656;37.422;2022-07-19T04:10:48;99291.00;;;12.54
28803;BMP280;15949;55.656;37.422;2022-07-19T04:15:54;99288.66;;;12.65
28803;BMP280;15949;55.656;37.422;2022-07-19T04:20:59;99286.31;;;12.76
28803;BMP280;15949;55.656;37.422;2022-07-19T04:26:05;99292.97;;;12.62
28803;BMP280;15949;55.656;37.422;2022-07-19T04:31:11;99297.00;;;12.76
28803;BMP280;15949;55.656;37.422;2022-07-19T04:36:16;99289.72;;;12.86
28803;BMP280;15949;55.656;37.422;2022-07-19T04:41:22;99302.19;;;12.98
28803;BMP280;15949;55.656;37.422;2022-07-19T04:46:27;99294.63;;;13.15
28803;BMP280;15949;55.656;37.422;2022-07-19T04:51:33;99294.00;;;13.29
28803;BMP280;15949;55.656;37.422;2022-07-19T04:56:38;99292.22;;;13.35
28803;BMP280;15949;55.656;37.422;2022-07-19T05:01:44;99283.44;;;13.44
28803;BMP280;15949;55.656;37.422;2022-07-19T05:06:50;99288.41;;;13.69
28803;BMP280;15949;55.656;37.422;2022-07-19T05:12:02;99289.34;;;14.00
28803;BMP280;15949;55.656;37.422;2022-07-19T05:17:10;99281.47;;;14.20
28803;BMP280;15949;55.656;37.422;2022-07-19T05:22:16;99289.13;;;14.36
28803;BMP280;15949;55.656;37.422;2022-07-19T05:27:22;99278.69;;;14.38
28803;BMP280;15949;55.656;37.422;2022-07-19T05:32:27;99282.78;;;14.49
28803;BMP280;15949;55.656;37.422;2022-07-19T05:37:33;99284.00;;;14.48
28803;BMP280;15949;55.656;37.422;2022-07-19T05:42:39;99291.63;;;14.64
28803;BMP280;15949;55.656;37.422;2022-07-19T05:47:44;99287.66;;;14.74
28803;BMP280;15949;55.656;37.422;2022-07-19T05:52:50;99284.81;;;14.78
28803;BMP280;15949;55.656;37.422;2022-07-19T05:57:55;99276.09;;;14.83
28803;BMP280;15949;55.656;37.422;2022-07-19T06:03:01;99288.53;;;14.95
28803;BMP280;15949;55.656;37.422;2022-07-19T06:08:06;99285.44;;;15.11
28803;BMP280;15949;55.656;37.422;2022-07-19T06:13:12;99293.16;;;15.39
28803;BMP280;15949;55.656;37.422;2022-07-19T06:18:18;99283.94;;;15.75
28803;BMP280;15949;55.656;37.422;2022-07-19T06:23:24;99285.53;;;15.67
28803;BMP280;15949;55.656;37.422;2022-07-19T06:28:29;99281.50;;;15.57
28803;BMP280;15949;55.656;37.422;2022-07-19T06:33:38;99287.72;;;15.83
28803;BMP280;15949;55.656;37.422;2022-07-19T06:38:44;99283.31;;;16.21
28803;BMP280;15949;55.656;37.422;2022-07-19T06:43:50;99289.63;;;16.59
28803;BMP280;15949;55.656;37.422;2022-07-19T06:48:55;99295.09;;;16.96
28803;BMP280;15949;55.656;37.422;2022-07-19T06:54:01;99294.13;;;16.94
28803;BMP280;15949;55.656;37.422;2022-07-19T06:59:07;99290.00;;;16.72
28803;BMP280;15949;55.656;37.422;2022-07-19T07:04:12;99291.22;;;16.71
28803;BMP280;15949;55.656;37.422;2022-07-19T07:09:18;99286.75;;;17.20
28803;BMP280;15949;55.656;37.422;2022-07-19T07:14:23;99284.50;;;17.45
28803;BMP280;15949;55.656;37.422;2022-07-19T07:19:29;99287.25;;;17.61
28803;BMP280;15949;55.656;37.422;2022-07-19T07:24:34;99288.47;;;17.55
28803;BMP280;15949;55.656;37.422;2022-07-19T07:29:40;99287.69;;;17.43
28803;BMP280;15949;55.656;37.422;2022-07-19T07:34:46;99287.47;;;17.52
28803;BMP280;15949;55.656;37.422;2022-07-19T07:39:52;99290.69;;;18.05
28803;BMP280;15949;55.656;37.422;2022-07-19T07:44:59;99299.81;;;18.24
28803;BMP280;15949;55.656;37.422;2022-07-19T07:50:06;99292.72;;;18.32
28803;BMP280;15949;55.656;37.422;2022-07-19T07:55:12;99291.81;;;18.47
28803;BMP280;15949;55.656;37.422;2022-07-19T08:00:18;99289.34;;;18.49
28803;BMP280;15949;55.656;37.422;2022-07-19T08:05:23;99282.53;;;18.59
28803;BMP280;15949;55.656;37.422;2022-07-19T08:10:30;99287.78;;;18.19
28803;BMP280;15949;55.656;37.422;2022-07-19T08:15:40;99286.13;;;18.33
28803;BMP280;15949;55.656;37.422;2022-07-19T08:20:46;99293.78;;;18.57
28803;BMP280;15949;55.656;37.422;2022-07-19T08:25:51;99292.81;;;18.66
28803;BMP280;15949;55.656;37.422;2022-07-19T08:30:57;99311.25;;;18.79
28803;BMP280;15949;55.656;37.422;2022-07-19T08:36:03;99298.22;;;18.88
28803;BMP280;15949;55.656;37.422;2022-07-19T08:41:08;99305.81;;;19.12
28803;BMP280;15949;55.656;37.422;2022-07-19T08:46:14;99301.44;;;18.87
28803;BMP280;15949;55.656;37.422;2022-07-19T08:51:20;99300.34;;;18.34
28803;BMP280;15949;55.656;37.422;2022-07-19T08:56:26;99294.28;;;18.67
28803;BMP280;15949;55.656;37.422;2022-07-19T09:01:51;99301.69;;;18.72
28803;BMP280;15949;55.656;37.422;2022-07-19T09:06:58;99284.97;;;18.74
28803;BMP280;15949;55.656;37.422;2022-07-19T09:12:05;99284.50;;;18.86
28803;BMP280;15949;55.656;37.422;2022-07-19T09:17:12;99275.41;;;18.73
28803;BMP280;15949;55.656;37.422;2022-07-19T09:22:24;99282.22;;;18.46
28803;BMP280;15949;55.656;37.422;2022-07-19T09:27:31;99281.41;;;18.06
28803;BMP280;15949;55.656;37.422;2022-07-19T09:32:37;99291.03;;;18.29
28803;BMP280;15949;55.656;37.422;2022-07-19T09:37:42;99283.44;;;18.33
28803;BMP280;15949;55.656;37.422;2022-07-19T09:42:52;99286.78;;;18.06
28803;BMP280;15949;55.656;37.422;2022-07-19T09:47:58;99282.13;;;18.06
28803;BMP280;15949;55.656;37.422;2022-07-19T09:53:06;99278.56;;;18.37
28803;BMP280;15949;55.656;37.422;2022-07-19T09:58:12;99281.72;;;18.41
28803;BMP280;15949;55.656;37.422;2022-07-19T10:03:19;99271.13;;;18.21
28803;BMP280;15949;55.656;37.422;2022-07-19T10:08:24;99270.63;;;18.17
28803;BMP280;15949;55.656;37.422;2022-07-19T10:13:31;99274.69;;;17.90
28803;BMP280;15949;55.656;37.422;2022-07-19T10:18:44;99278.78;;;17.74
28803;BMP280;15949;55.656;37.422;2022-07-19T10:23:52;99274.91;;;17.86
28803;BMP280;15949;55.656;37.422;2022-07-19T10:34:21;99275.41;;;18.73
28803;BMP280;15949;55.656;37.422;2022-07-19T10:39:29;99271.00;;;19.09
28803;BMP280;15949;55.656;37.422;2022-07-19T10:50:11;99261.34;;;19.53
28803;BMP280;15949;55.656;37.422;2022-07-19T10:55:25;99261.81;;;20.56
28803;BMP280;15949;55.656;37.422;2022-07-19T11:00:42;99261.28;;;20.88
28803;BMP280;15949;55.656;37.422;2022-07-19T11:05:53;99262.91;;;21.26
28803;BMP280;15949;55.656;37.422;2022-07-19T11:11:13;99240.88;;;21.11
28803;BMP280;15949;55.656;37.422;2022-07-19T11:16:19;99243.31;;;20.90
28803;BMP280;15949;55.656;37.422;2022-07-19T11:21:25;99240.81;;;20.32
28803;BMP280;15949;55.656;37.422;2022-07-19T11:26:38;99241.16;;;20.17
28803;BMP280;15949;55.656;37.422;2022-07-19T11:31:47;99246.06;;;20.55
28803;BMP280;15949;55.656;37.422;2022-07-19T11:36:57;99233.50;;;20.57
28803;BMP280;15949;55.656;37.422;2022-07-19T11:42:03;99232.31;;;20.17
28803;BMP280;15949;55.656;37.422;2022-07-19T11:47:08;99233.19;;;20.91
28803;BMP280;15949;55.656;37.422;2022-07-19T11:52:14;99220.75;;;22.20
28803;BMP280;15949;55.656;37.422;2022-07-19T11:57:24;99218.88;;;22.15
28803;BMP280;15949;55.656;37.422;2022-07-19T12:02:29;99219.44;;;21.57
28803;BMP280;15949;55.656;37.422;2022-07-19T12:07:57;99230.09;;;21.30
28803;BMP280;15949;55.656;37.422;2022-07-19T12:13:05;99220.59;;;21.42
28803;BMP280;15949;55.656;37.422;2022-07-19T12:18:10;99220.63;;;20.93
28803;BMP280;15949;55.656;37.422;2022-07-19T12:23:18;99262.56;;;20.10
28803;BMP280;15949;55.656;37.422;2022-07-19T12:28:27;99243.50;;;19.10
28803;BMP280;15949;55.656;37.422;2022-07-19T12:33:32;99256.38;;;18.11
28803;BMP280;15949;55.656;37.422;2022-07-19T12:38:38;99263.94;;;17.53
28803;BMP280;15949;55.656;37.422;2022-07-19T12:43:44;99260.94;;;17.39
28803;BMP280;15949;55.656;37.422;2022-07-19T12:48:49;99261.66;;;17.34
28803;BMP280;15949;55.656;37.422;2022-07-19T12:53:55;99255.28;;;17.32
28803;BMP280;15949;55.656;37.422;2022-07-19T12:59:01;99258.28;;;17.45
28803;BMP280;15949;55.656;37.422;2022-07-19T13:04:25;99252.22;;;17.50
28803;BMP280;15949;55.656;37.422;2022-07-19T13:09:31;99248.88;;;17.66
28803;BMP280;15949;55.656;37.422;2022-07-19T13:14:37;99247.47;;;17.82
28803;BMP280;15949;55.656;37.422;2022-07-19T13:19:42;99242.53;;;19.13
28803;BMP280;15949;55.656;37.422;2022-07-19T13:24:48;99229.69;;;20.06
28803;BMP280;15949;55.656;37.422;2022-07-19T13:29:54;99222.97;;;20.54
28803;BMP280;15949;55.656;37.422;2022-07-19T13:34:59;99236.47;;;20.84
28803;BMP280;15949;55.656;37.422;2022-07-19T13:40:05;99241.94;;;20.78
28803;BMP280;15949;55.656;37.422;2022-07-19T13:45:11;99237.75;;;20.11
28803;BMP280;15949;55.656;37.422;2022-07-19T13:50:16;99238.56;;;19.37
28803;BMP280;15949;55.656;37.422;2022-07-19T13:55:22;99233.22;;;19.03
28803;BMP280;15949;55.656;37.422;2022-07-19T14:00:28;99234.47;;;18.74
28803;BMP280;15949;55.656;37.422;2022-07-19T14:05:33;99231.00;;;18.51
28803;BMP280;15949;55.656;37.422;2022-07-19T14:10:40;99232.97;;;18.62
28803;BMP280;15949;55.656;37.422;2022-07-19T14:15:45;99229.78;;;18.58
28803;BMP280;15949;55.656;37.422;2022-07-19T14:20:51;99223.91;;;18.48
28803;BMP280;15949;55.656;37.422;2022-07-19T14:25:57;99215.28;;;18.27
28803;BMP280;15949;55.656;37.422;2022-07-19T14:31:03;99223.63;;;18.29
28803;BMP280;15949;55.656;37.422;2022-07-19T14:36:09;99222.19;;;18.79
28803;BMP280;15949;55.656;37.422;2022-07-19T14:41:14;99219.84;;;20.03
28803;BMP280;15949;55.656;37.422;2022-07-19T14:46:20;99208.59;;;21.57
28803;BMP280;15949;55.656;37.422;2022-07-19T14:51:26;99213.44;;;21.01
28803;BMP280;15949;55.656;37.422;2022-07-19T14:56:31;99212.38;;;21.29
28803;BMP280;15949;55.656;37.422;2022-07-19T15:01:37;99204.56;;;22.59
28803;BMP280;15949;55.656;37.422;2022-07-19T15:06:43;99209.84;;;21.93
28803;BMP280;15949;55.656;37.422;2022-07-19T15:11:48;99209.34;;;23.33
28803;BMP280;15949;55.656;37.422;2022-07-19T15:16:54;99197.00;;;22.26
28803;BMP280;15949;55.656;37.422;2022-07-19T15:22:00;99210.03;;;20.65
28803;BMP280;15949;55.656;37.422;2022-07-19T15:27:07;99206.34;;;19.44
28803;BMP280;15949;55.656;37.422;2022-07-19T15:32:12;99209.19;;;18.72
28803;BMP280;15949;55.656;37.422;2022-07-19T15:37:19;99213.53;;;18.24
28803;BMP280;15949;55.656;37.422;2022-07-19T15:42:25;99212.81;;;18.18
28803;BMP280;15949;55.656;37.422;2022-07-19T15:47:31;99208.34;;;18.04
28803;BMP280;15949;55.656;37.422;2022-07-19T15:52:37;99202.94;;;17.92
28803;BMP280;15949;55.656;37.422;2022-07-19T15:57:42;99201.94;;;17.84
28803;BMP280;15949;55.656;37.422;2022-07-19T16:02:48;99204.84;;;17.81
28803;BMP280;15949;55.656;37.422;2022-07-19T16:07:53;99206.66;;;18.01
28803;BMP280;15949;55.656;37.422;2022-07-19T16:12:59;99197.16;;;18.39
28803;BMP280;15949;55.656;37.422;2022-07-19T16:18:04;99200.31;;;18.32
28803;BMP280;15949;55.656;37.422;2022-07-19T16:23:10;99194.22;;;18.31
28803;BMP280;15949;55.656;37.422;2022-07-19T16:28:16;99208.34;;;18.04
28803;BMP280;15949;55.656;37.422;2022-07-19T16:33:21;99210.72;;;17.79
28803;BMP280;15949;55.656;37.422;2022-07-19T16:38:27;99210.88;;;17.59
28803;BMP280;15949;55.656;37.422;2022-07-19T16:43:33;99200.47;;;17.35
28803;BMP280;15949;55.656;37.422;2022-07-19T16:48:38;99206.97;;;17.17
28803;BMP280;15949;55.656;37.422;2022-07-19T16:53:44;99204.19;;;17.06
28803;BMP280;15949;55.656;37.422;2022-07-19T16:58:50;99213.13;;;16.91
28803;BMP280;15949;55.656;37.422;2022-07-19T17:03:55;99217.81;;;16.91
28803;BMP280;15949;55.656;37.422;2022-07-19T17:09:01;99215.75;;;16.80
28803;BMP280;15949;55.656;37.422;2022-07-19T17:14:10;99233.25;;;16.70
28803;BMP280;15949;55.656;37.422;2022-07-19T17:19:15;99227.78;;;16.38
28803;BMP280;15949;55.656;37.422;2022-07-19T17:24:22;99228.91;;;16.26
28803;BMP280;15949;55.656;37.422;2022-07-19T17:29:27;99231.03;;;16.02
28803;BMP280;15949;55.656;37.422;2022-07-19T17:34:33;99236.44;;;15.81
28803;BMP280;15949;55.656;37.422;2022-07-19T17:39:38;99234.22;;;15.65
28803;BMP280;15949;55.656;37.422;2022-07-19T17:44:44;99236.97;;;15.50
28803;BMP280;15949;55.656;37.422;2022-07-19T17:49:50;99231.53;;;15.45
28803;BMP280;15949;55.656;37.422;2022-07-19T17:54:55;99226.91;;;15.30
28803;BMP280;15949;55.656;37.422;2022-07-19T18:00:02;99227.47;;;15.20
28803;BMP280;15949;55.656;37.422;2022-07-19T18:05:09;99234.91;;;15.10
28803;BMP280;15949;55.656;37.422;2022-07-19T18:10:14;99231.38;;;15.04
28803;BMP280;15949;55.656;37.422;2022-07-19T18:15:20;99241.53;;;15.00
28803;BMP280;15949;55.656;37.422;2022-07-19T18:20:26;99236.38;;;14.96
28803;BMP280;15949;55.656;37.422;2022-07-19T18:25:31;99243.31;;;15.03
28803;BMP280;15949;55.656;37.422;2022-07-19T18:30:37;99247.09;;;15.11
28803;BMP280;15949;55.656;37.422;2022-07-19T18:35:43;99241.75;;;15.11
28803;BMP280;15949;55.656;37.422;2022-07-19T18:40:49;99236.38;;;15.11
28803;BMP280;15949;55.656;37.422;2022-07-19T18:45:55;99237.47;;;15.19
28803;BMP280;15949;55.656;37.422;2022-07-19T18:51:05;99236.19;;;15.14
28803;BMP280;15949;55.656;37.422;2022-07-19T18:56:11;99229.91;;;15.03
28803;BMP280;15949;55.656;37.422;2022-07-19T19:01:16;99241.38;;;15.18
28803;BMP280;15949;55.656;37.422;2022-07-19T19:06:22;99245.41;;;15.28
28803;BMP280;15949;55.656;37.422;2022-07-19T19:11:27;99236.06;;;15.38
28803;BMP280;15949;55.656;37.422;2022-07-19T19:16:33;99227.81;;;15.42
28803;BMP280;15949;55.656;37.422;2022-07-19T19:21:39;99232.91;;;15.55
28803;BMP280;15949;55.656;37.422;2022-07-19T19:26:44;99219.75;;;15.57
28803;BMP280;15949;55.656;37.422;2022-07-19T19:31:50;99233.69;;;15.61
28803;BMP280;15949;55.656;37.422;2022-07-19T19:36:56;99219.63;;;15.66
28803;BMP280;15949;55.656;37.422;2022-07-19T19:42:01;99223.50;;;15.65
28803;BMP280;15949;55.656;37.422;2022-07-19T19:47:07;99224.59;;;15.73
28803;BMP280;15949;55.656;37.422;2022-07-19T19:52:13;99211.03;;;15.82
28803;BMP280;15949;55.656;37.422;2022-07-19T19:57:18;99216.06;;;15.75
28803;BMP280;15949;55.656;37.422;2022-07-19T20:02:24;99214.41;;;15.77
28803;BMP280;15949;55.656;37.422;2022-07-19T20:07:29;99208.06;;;15.80
28803;BMP280;15949;55.656;37.422;2022-07-19T20:12:35;99200.69;;;15.75
28803;BMP280;15949;55.656;37.422;2022-07-19T20:17:41;99210.25;;;15.76
28803;BMP280;15949;55.656;37.422;2022-07-19T20:22:46;99206.59;;;15.79
28803;BMP280;15949;55.656;37.422;2022-07-19T20:27:52;99210.31;;;15.82
28803;BMP280;15949;55.656;37.422;2022-07-19T20:32:58;99206.88;;;15.81
28803;BMP280;15949;55.656;37.422;2022-07-19T20:38:04;99206.59;;;15.79
28803;BMP280;15949;55.656;37.422;2022-07-19T20:43:09;99201.16;;;15.74
28803;BMP280;15949;55.656;37.422;2022-07-19T20:48:15;99200.16;;;15.71
28803;BMP280;15949;55.656;37.422;2022-07-19T20:53:21;99202.25;;;15.61
28803;BMP280;15949;55.656;37.422;2022-07-19T20:58:26;99193.00;;;15.48
28803;BMP280;15949;55.656;37.422;2022-07-19T21:03:32;99192.81;;;15.31
28803;BMP280;15949;55.656;37.422;2022-07-19T21:08:38;99187.72;;;15.18
28803;BMP280;15949;55.656;37.422;2022-07-19T21:13:43;99191.88;;;15.04
28803;BMP280;15949;55.656;37.422;2022-07-19T21:18:49;99180.41;;;14.89
28803;BMP280;15949;55.656;37.422;2022-07-19T21:23:55;99178.88;;;14.82
28803;BMP280;15949;55.656;37.422;2022-07-19T21:29:01;99179.84;;;14.70
28803;BMP280;15949;55.656;37.422;2022-07-19T21:34:06;99170.16;;;14.58
28803;BMP280;15949;55.656;37.422;2022-07-19T21:39:12;99169.31;;;14.52
28803;BMP280;15949;55.656;37.422;2022-07-19T21:44:18;99163.00;;;14.40
28803;BMP280;15949;55.656;37.422;2022-07-19T21:49:23;99151.63;;;14.30
28803;BMP280;15949;55.656;37.422;2022-07-19T21:54:29;99151.81;;;14.27
28803;BMP280;15949;55.656;37.422;2022-07-19T21:59:35;99148.09;;;14.24
28803;BMP280;15949;55.656;37.422;2022-07-19T22:04:41;99143.47;;;14.10
28803;BMP280;15949;55.656;37.422;2022-07-19T22:09:47;99142.16;;;14.05
28803;BMP280;15949;55.656;37.422;2022-07-19T22:14:53;99124.56;;;13.89
28803;BMP280;15949;55.656;37.422;2022-07-19T22:20:00;99126.38;;;13.83
28803;BMP280;15949;55.656;37.422;2022-07-19T22:25:06;99118.75;;;13.67
28803;BMP280;15949;55.656;37.422;2022-07-19T22:30:12;99120.00;;;13.57
28803;BMP280;15949;55.656;37.422;2022-07-19T22:35:18;99109.97;;;13.42
28803;BMP280;15949;55.656;37.422;2022-07-19T22:40:23;99123.66;;;13.44
28803;BMP280;15949;55.656;37.422;2022-07-19T22:45:29;99113.34;;;13.52
28803;BMP280;15949;55.656;37.422;2022-07-19T22:50:37;99116.47;;;13.51
28803;BMP280;15949;55.656;37.422;2022-07-19T22:55:42;99106.22;;;13.49
28803;BMP280;15949;55.656;37.422;2022-07-19T23:00:48;99104.63;;;13.42
28803;BMP280;15949;55.656;37.422;2022-07-19T23:05:54;99102.41;;;13.41
28803;BMP280;15949;55.656;37.422;2022-07-19T23:10:59;99096.78;;;13.39
28803;BMP280;15949;55.656;37.422;2022-07-19T23:16:05;99092.19;;;13.30
28803;BMP280;15949;55.656;37.422;2022-07-19T23:21:11;99099.22;;;13.18
28803;BMP280;15949;55.656;37.422;2022-07-19T23:26:16;99092.56;;;13.14
28803;BMP280;15949;55.656;37.422;2022-07-19T23:31:22;99090.69;;;12.96
28803;BMP280;15949;55.656;37.422;2022-07-19T23:36:28;99094.44;;;12.89
28803;BMP280;15949;55.656;37.422;2022-07-19T23:41:34;99087.78;;;12.75
28803;BMP280;15949;55.656;37.422;2022-07-19T23:46:39;99084.41;;;12.66
28803;BMP280;15949;55.656;37.422;2022-07-19T23:51:45;99087.78;;;12.75
28803;BMP280;15949;55.656;37.422;2022-07-19T23:56:50;99080.81;;;12.78
